createdAt,value
2023-06-07T00:00:04.843Z,13.5
2023-06-07T00:12:04.654Z,14
2023-06-07T00:24:04.594Z,13.5
2023-06-07T00:36:04.554Z,14
2023-06-07T00:48:04.790Z,13.5
2023-06-07T01:00:04.899Z,13.5
2023-06-07T01:12:04.609Z,13.5
2023-06-07T01:24:04.629Z,13.5
2023-06-07T01:36:04.731Z,13.5
2023-06-07T01:48:04.712Z,13.5
2023-06-07T02:00:04.779Z,13.5
2023-06-07T02:12:04.888Z,13.5
2023-06-07T02:24:04.810Z,13.5
2023-06-07T02:36:04.836Z,13.5
2023-06-07T02:48:04.792Z,13.5
2023-06-07T03:00:05.084Z,13
2023-06-07T03:12:04.810Z,13
2023-06-07T03:24:04.827Z,13
2023-06-07T03:36:04.694Z,13
2023-06-07T03:48:04.932Z,13
2023-06-07T04:00:05.012Z,13
2023-06-07T04:12:04.851Z,12.5
2023-06-07T04:24:04.741Z,13
2023-06-07T04:36:04.925Z,12.5
2023-06-07T04:48:04.866Z,13
2023-06-07T05:00:04.935Z,13
2023-06-07T05:12:04.997Z,12.5
2023-06-07T05:24:05.041Z,12.5
2023-06-07T05:36:04.892Z,13
2023-06-07T05:48:04.891Z,12.5
2023-06-07T06:00:05.173Z,12.5
2023-06-07T06:12:05.009Z,12.5
2023-06-07T06:24:04.928Z,13
2023-06-07T06:36:05.125Z,12.5
2023-06-07T06:48:05.038Z,13
2023-06-07T07:00:05.136Z,13
2023-06-07T07:12:04.940Z,13
2023-06-07T07:24:05.458Z,13.5
2023-06-07T07:36:05.055Z,13.5
2023-06-07T07:48:05.072Z,14
2023-06-07T08:00:05.096Z,14
2023-06-07T08:12:05.135Z,15
2023-06-07T08:24:05.117Z,15
2023-06-07T08:36:05.071Z,15
2023-06-07T08:48:05.021Z,15
2023-06-07T09:00:05.494Z,17
2023-06-07T09:12:05.131Z,16
2023-06-07T09:24:05.176Z,16.5
2023-06-07T09:36:05.381Z,18.5
2023-06-07T09:48:05.549Z,19.5
2023-06-07T10:00:05.865Z,20
2023-06-07T10:12:05.146Z,20
2023-06-07T10:24:05.465Z,19.5
2023-06-07T10:36:05.273Z,21
2023-06-07T10:48:05.262Z,20
2023-06-07T11:00:05.705Z,22
2023-06-07T11:12:05.195Z,19
2023-06-07T11:24:05.227Z,18
2023-06-07T11:36:05.326Z,19.5
2023-06-07T12:00:05.616Z,18.5
2023-06-07T12:12:05.217Z,18.5
2023-06-07T12:24:05.429Z,18.5
2023-06-07T12:36:06.704Z,18.5
2023-06-07T12:48:05.488Z,18.5
2023-06-07T13:00:05.734Z,19.5
2023-06-07T13:12:06.043Z,19.5
2023-06-07T13:24:05.464Z,19
2023-06-07T13:36:05.372Z,19.5
2023-06-07T13:48:05.683Z,18.5
2023-06-07T14:00:05.815Z,18.5
2023-06-07T14:12:05.406Z,19
2023-06-07T14:24:05.413Z,18.5
2023-06-07T14:36:05.531Z,19
2023-06-07T15:00:06.535Z,20
2023-06-07T15:12:05.380Z,19.5
2023-06-07T15:24:05.522Z,19
2023-06-07T15:36:05.426Z,19
2023-06-07T15:48:05.655Z,20
2023-06-07T16:00:05.776Z,20
2023-06-07T16:12:05.585Z,20
2023-06-07T16:24:05.743Z,20
2023-06-07T16:36:08.151Z,20
2023-06-07T16:48:07.752Z,20
2023-06-07T17:00:05.810Z,20
2023-06-07T17:12:05.516Z,19.5
2023-06-07T17:24:05.711Z,19.5
2023-06-07T17:36:05.623Z,19.5
2023-06-07T17:48:05.862Z,19.5
2023-06-07T18:00:05.963Z,19.5
2023-06-07T18:12:05.701Z,19
2023-06-07T18:24:05.609Z,18.5
2023-06-07T18:36:05.798Z,19
2023-06-07T18:48:05.751Z,18.5
2023-06-07T19:00:05.728Z,18.5
2023-06-07T19:12:05.838Z,18.5
2023-06-07T19:24:05.908Z,17.5
2023-06-07T19:36:05.747Z,17.5
2023-06-07T19:48:05.836Z,16.5
2023-06-07T20:00:06.071Z,16.5
2023-06-07T20:12:05.854Z,16.5
2023-06-07T20:24:06.021Z,15.5
2023-06-07T20:36:05.760Z,15.5
2023-06-07T20:48:05.956Z,15.5
2023-06-07T21:00:06.180Z,15.5
2023-06-07T21:12:05.803Z,15
2023-06-07T21:24:05.879Z,14.5
2023-06-07T21:36:05.958Z,14.5
2023-06-07T21:48:06.080Z,14.5
2023-06-07T22:00:06.034Z,14
2023-06-07T22:12:05.865Z,13.5
2023-06-07T22:24:06.072Z,13.5
2023-06-07T22:36:05.963Z,13.5
2023-06-07T22:48:06.113Z,13.5
2023-06-07T23:00:06.132Z,13.5
2023-06-07T23:12:06.053Z,13.5
2023-06-07T23:24:06.053Z,13.5
2023-06-07T23:36:06.018Z,12.5
2023-06-07T23:48:07.639Z,12.5
